sensor_id;sensor_type;location;lat;lon;timestamp;temperature;humidity
71084;DHT22;58741;52.672;13.548;2023-07-29T00:00:53;17.70;99.90
71084;DHT22;58741;52.672;13.548;2023-07-29T00:03:18;17.70;99.90
71084;DHT22;58741;52.672;13.548;2023-07-29T00:05:44;17.70;99.90
71084;DHT22;58741;52.672;13.548;2023-07-29T00:08:09;17.70;99.90
71084;DHT22;58741;52.672;13.548;2023-07-29T00:10:38;17.70;99.90
71084;DHT22;58741;52.672;13.548;2023-07-29T00:13:05;17.60;99.90
71084;DHT22;58741;52.672;13.548;2023-07-29T00:15:31;17.60;99.90
71084;DHT22;58741;52.672;13.548;2023-07-29T00:17:56;17.60;99.90
71084;DHT22;58741;52.672;13.548;2023-07-29T00:20:22;17.60;99.90
71084;DHT22;58741;52.672;13.548;2023-07-29T00:22:48;17.50;99.90
71084;DHT22;58741;52.672;13.548;2023-07-29T00:25:16;17.50;99.90
71084;DHT22;58741;52.672;13.548;2023-07-29T00:27:42;17.50;99.90
71084;DHT22;58741;52.672;13.548;2023-07-29T00:30:08;17.40;99.90
71084;DHT22;58741;52.672;13.548;2023-07-29T00:32:35;17.40;99.90
71084;DHT22;58741;52.672;13.548;2023-07-29T00:35:01;17.30;99.90
71084;DHT22;58741;52.672;13.548;2023-07-29T00:37:28;17.30;99.90
71084;DHT22;58741;52.672;13.548;2023-07-29T00:39:53;17.30;99.90
71084;DHT22;58741;52.672;13.548;2023-07-29T00:42:19;17.20;99.90
71084;DHT22;58741;52.672;13.548;2023-07-29T00:44:45;17.20;99.90
71084;DHT22;58741;52.672;13.548;2023-07-29T00:47:11;17.10;99.90
71084;DHT22;58741;52.672;13.548;2023-07-29T00:49:38;17.10;99.90
71084;DHT22;58741;52.672;13.548;2023-07-29T00:52:03;17.10;99.90
71084;DHT22;58741;52.672;13.548;2023-07-29T00:54:29;17.00;99.90
71084;DHT22;58741;52.672;13.548;2023-07-29T00:56:55;17.00;99.90
71084;DHT22;58741;52.672;13.548;2023-07-29T00:59:20;17.00;99.90
71084;DHT22;58741;52.672;13.548;2023-07-29T01:01:46;16.90;99.90
71084;DHT22;58741;52.672;13.548;2023-07-29T01:04:12;16.90;99.90
71084;DHT22;58741;52.672;13.548;2023-07-29T01:06:50;16.80;99.90
71084;DHT22;58741;52.672;13.548;2023-07-29T01:09:43;16.80;99.90
71084;DHT22;58741;52.672;13.548;2023-07-29T01:12:24;16.80;99.90
71084;DHT22;58741;52.672;13.548;2023-07-29T01:17:35;16.70;99.90
71084;DHT22;58741;52.672;13.548;2023-07-29T01:20:19;16.70;99.90
71084;DHT22;58741;52.672;13.548;2023-07-29T01:22:46;16.60;99.90
71084;DHT22;58741;52.672;13.548;2023-07-29T01:25:13;16.60;99.90
71084;DHT22;58741;52.672;13.548;2023-07-29T01:27:39;16.60;99.90
71084;DHT22;58741;52.672;13.548;2023-07-29T01:30:06;16.60;99.90
71084;DHT22;58741;52.672;13.548;2023-07-29T01:32:53;16.60;99.90
71084;DHT22;58741;52.672;13.548;2023-07-29T01:37:55;16.50;99.90
71084;DHT22;58741;52.672;13.548;2023-07-29T01:40:22;16.50;99.90
71084;DHT22;58741;52.672;13.548;2023-07-29T01:42:49;16.50;99.90
71084;DHT22;58741;52.672;13.548;2023-07-29T01:45:16;16.50;99.90
71084;DHT22;58741;52.672;13.548;2023-07-29T01:47:42;16.50;99.90
71084;DHT22;58741;52.672;13.548;2023-07-29T01:50:08;16.40;99.90
71084;DHT22;58741;52.672;13.548;2023-07-29T01:52:34;16.40;99.90
71084;DHT22;58741;52.672;13.548;2023-07-29T01:55:01;16.40;99.90
71084;DHT22;58741;52.672;13.548;2023-07-29T01:57:26;16.40;99.90
71084;DHT22;58741;52.672;13.548;2023-07-29T01:59:52;16.40;99.90
71084;DHT22;58741;52.672;13.548;2023-07-29T02:02:18;16.40;99.90
71084;DHT22;58741;52.672;13.548;2023-07-29T02:04:43;16.40;99.90
71084;DHT22;58741;52.672;13.548;2023-07-29T02:07:10;16.30;99.90
71084;DHT22;58741;52.672;13.548;2023-07-29T02:09:36;16.30;99.90
71084;DHT22;58741;52.672;13.548;2023-07-29T02:12:01;16.30;99.90
71084;DHT22;58741;52.672;13.548;2023-07-29T02:14:36;16.30;99.90
71084;DHT22;58741;52.672;13.548;2023-07-29T02:17:02;16.30;99.90
71084;DHT22;58741;52.672;13.548;2023-07-29T02:19:27;16.30;99.90
71084;DHT22;58741;52.672;13.548;2023-07-29T02:21:53;16.30;99.90
71084;DHT22;58741;52.672;13.548;2023-07-29T02:24:19;16.30;99.90
71084;DHT22;58741;52.672;13.548;2023-07-29T02:26:44;16.30;99.90
71084;DHT22;58741;52.672;13.548;2023-07-29T02:29:10;16.20;99.90
71084;DHT22;58741;52.672;13.548;2023-07-29T02:31:36;16.20;99.90
71084;DHT22;58741;52.672;13.548;2023-07-29T02:34:03;16.20;99.90
71084;DHT22;58741;52.672;13.548;2023-07-29T02:36:29;16.20;99.90
71084;DHT22;58741;52.672;13.548;2023-07-29T02:38:55;16.20;99.90
71084;DHT22;58741;52.672;13.548;2023-07-29T02:41:21;16.20;99.90
71084;DHT22;58741;52.672;13.548;2023-07-29T02:43:50;16.20;99.90
71084;DHT22;58741;52.672;13.548;2023-07-29T02:46:17;16.10;99.90
71084;DHT22;58741;52.672;13.548;2023-07-29T02:48:44;16.10;99.90
71084;DHT22;58741;52.672;13.548;2023-07-29T02:51:10;16.10;99.90
71084;DHT22;58741;52.672;13.548;2023-07-29T02:53:35;16.10;99.90
71084;DHT22;58741;52.672;13.548;2023-07-29T02:56:04;16.10;99.90
71084;DHT22;58741;52.672;13.548;2023-07-29T02:58:30;16.10;99.90
71084;DHT22;58741;52.672;13.548;2023-07-29T03:01:03;16.10;99.90
71084;DHT22;58741;52.672;13.548;2023-07-29T03:03:29;16.10;99.90
71084;DHT22;58741;52.672;13.548;2023-07-29T03:08:24;16.10;99.90
71084;DHT22;58741;52.672;13.548;2023-07-29T03:10:50;16.00;99.90
71084;DHT22;58741;52.672;13.548;2023-07-29T03:13:16;16.00;99.90
71084;DHT22;58741;52.672;13.548;2023-07-29T03:15:41;16.00;99.90
71084;DHT22;58741;52.672;13.548;2023-07-29T03:18:07;16.00;99.90
71084;DHT22;58741;52.672;13.548;2023-07-29T03:20:32;16.00;99.90
71084;DHT22;58741;52.672;13.548;2023-07-29T03:22:58;16.00;99.90
71084;DHT22;58741;52.672;13.548;2023-07-29T03:25:24;16.00;99.90
71084;DHT22;58741;52.672;13.548;2023-07-29T03:27:49;16.00;99.90
71084;DHT22;58741;52.672;13.548;2023-07-29T03:30:15;16.00;99.90
71084;DHT22;58741;52.672;13.548;2023-07-29T03:32:43;16.00;99.90
71084;DHT22;58741;52.672;13.548;2023-07-29T03:35:11;16.00;99.90
71084;DHT22;58741;52.672;13.548;2023-07-29T03:37:36;15.90;99.90
71084;DHT22;58741;52.672;13.548;2023-07-29T03:40:02;16.00;99.90
71084;DHT22;58741;52.672;13.548;2023-07-29T03:42:28;16.00;99.90
71084;DHT22;58741;52.672;13.548;2023-07-29T03:44:54;15.90;99.90
71084;DHT22;58741;52.672;13.548;2023-07-29T03:47:19;15.90;99.90
71084;DHT22;58741;52.672;13.548;2023-07-29T03:49:45;15.90;99.90
71084;DHT22;58741;52.672;13.548;2023-07-29T03:52:11;15.90;99.90
71084;DHT22;58741;52.672;13.548;2023-07-29T03:54:37;15.90;99.90
71084;DHT22;58741;52.672;13.548;2023-07-29T03:57:02;15.90;99.90
71084;DHT22;58741;52.672;13.548;2023-07-29T03:59:28;16.00;99.90
71084;DHT22;58741;52.672;13.548;2023-07-29T04:01:54;16.00;99.90
71084;DHT22;58741;52.672;13.548;2023-07-29T04:04:24;16.00;99.90
71084;DHT22;58741;52.672;13.548;2023-07-29T04:06:49;16.10;99.90
71084;DHT22;58741;52.672;13.548;2023-07-29T04:09:15;16.00;99.90
71084;DHT22;58741;52.672;13.548;2023-07-29T04:11:41;16.10;99.90
71084;DHT22;58741;52.672;13.548;2023-07-29T04:14:06;16.10;99.90
71084;DHT22;58741;52.672;13.548;2023-07-29T04:16:32;16.10;99.90
71084;DHT22;58741;52.672;13.548;2023-07-29T04:18:57;16.10;99.90
71084;DHT22;58741;52.672;13.548;2023-07-29T04:21:23;16.10;99.90
71084;DHT22;58741;52.672;13.548;2023-07-29T04:23:49;16.10;99.90
71084;DHT22;58741;52.672;13.548;2023-07-29T04:26:14;16.10;99.90
71084;DHT22;58741;52.672;13.548;2023-07-29T04:28:40;16.20;99.90
71084;DHT22;58741;52.672;13.548;2023-07-29T04:31:05;16.20;99.90
71084;DHT22;58741;52.672;13.548;2023-07-29T04:33:31;16.20;99.90
71084;DHT22;58741;52.672;13.548;2023-07-29T04:35:57;16.20;99.90
71084;DHT22;58741;52.672;13.548;2023-07-29T04:38:27;16.30;99.90
71084;DHT22;58741;52.672;13.548;2023-07-29T04:40:53;16.30;99.90
71084;DHT22;58741;52.672;13.548;2023-07-29T04:43:18;16.40;99.90
71084;DHT22;58741;52.672;13.548;2023-07-29T04:45:44;16.40;99.90
71084;DHT22;58741;52.672;13.548;2023-07-29T04:48:10;16.40;99.90
71084;DHT22;58741;52.672;13.548;2023-07-29T04:50:35;16.50;99.90
71084;DHT22;58741;52.672;13.548;2023-07-29T04:53:01;16.50;99.90
71084;DHT22;58741;52.672;13.548;2023-07-29T04:55:26;16.60;99.90
71084;DHT22;58741;52.672;13.548;2023-07-29T04:57:52;16.60;99.90
71084;DHT22;58741;52.672;13.548;2023-07-29T05:00:17;16.70;99.90
71084;DHT22;58741;52.672;13.548;2023-07-29T05:02:44;16.70;99.90
71084;DHT22;58741;52.672;13.548;2023-07-29T05:05:10;16.80;99.90
71084;DHT22;58741;52.672;13.548;2023-07-29T05:07:36;16.80;99.90
71084;DHT22;58741;52.672;13.548;2023-07-29T05:10:01;16.90;99.90
71084;DHT22;58741;52.672;13.548;2023-07-29T05:12:27;16.90;99.90
71084;DHT22;58741;52.672;13.548;2023-07-29T05:14:54;17.00;99.90
71084;DHT22;58741;52.672;13.548;2023-07-29T05:17:20;17.10;99.90
71084;DHT22;58741;52.672;13.548;2023-07-29T05:19:45;17.10;99.90
71084;DHT22;58741;52.672;13.548;2023-07-29T05:22:11;17.20;99.90
71084;DHT22;58741;52.672;13.548;2023-07-29T05:24:37;17.30;99.90
71084;DHT22;58741;52.672;13.548;2023-07-29T05:27:03;17.40;99.90
71084;DHT22;58741;52.672;13.548;2023-07-29T05:29:28;17.40;99.90
71084;DHT22;58741;52.672;13.548;2023-07-29T05:31:54;17.50;99.90
71084;DHT22;58741;52.672;13.548;2023-07-29T05:34:19;17.60;99.90
71084;DHT22;58741;52.672;13.548;2023-07-29T05:36:45;17.70;99.90
71084;DHT22;58741;52.672;13.548;2023-07-29T05:39:11;17.80;99.90
71084;DHT22;58741;52.672;13.548;2023-07-29T05:41:37;17.90;99.90
71084;DHT22;58741;52.672;13.548;2023-07-29T05:44:03;18.00;99.90
71084;DHT22;58741;52.672;13.548;2023-07-29T05:46:29;18.10;99.90
71084;DHT22;58741;52.672;13.548;2023-07-29T05:48:54;18.20;99.90
71084;DHT22;58741;52.672;13.548;2023-07-29T05:51:20;18.20;99.90
71084;DHT22;58741;52.672;13.548;2023-07-29T05:53:46;18.40;99.90
71084;DHT22;58741;52.672;13.548;2023-07-29T05:56:12;18.60;99.90
71084;DHT22;58741;52.672;13.548;2023-07-29T05:58:37;18.70;99.90
71084;DHT22;58741;52.672;13.548;2023-07-29T06:01:03;18.70;99.90
71084;DHT22;58741;52.672;13.548;2023-07-29T06:03:28;18.90;99.90
71084;DHT22;58741;52.672;13.548;2023-07-29T06:05:54;19.00;99.90
71084;DHT22;58741;52.672;13.548;2023-07-29T06:08:20;19.10;99.90
71084;DHT22;58741;52.672;13.548;2023-07-29T06:10:46;19.20;99.90
71084;DHT22;58741;52.672;13.548;2023-07-29T06:13:11;19.30;99.90
71084;DHT22;58741;52.672;13.548;2023-07-29T06:15:37;19.50;99.90
71084;DHT22;58741;52.672;13.548;2023-07-29T06:18:02;19.60;99.90
71084;DHT22;58741;52.672;13.548;2023-07-29T06:20:28;19.80;99.90
71084;DHT22;58741;52.672;13.548;2023-07-29T06:22:54;19.90;99.90
71084;DHT22;58741;52.672;13.548;2023-07-29T06:25:19;20.10;99.90
71084;DHT22;58741;52.672;13.548;2023-07-29T06:27:45;20.20;99.90
71084;DHT22;58741;52.672;13.548;2023-07-29T06:30:11;20.30;99.90
71084;DHT22;58741;52.672;13.548;2023-07-29T06:32:36;20.50;99.90
71084;DHT22;58741;52.672;13.548;2023-07-29T06:35:02;20.60;99.90
71084;DHT22;58741;52.672;13.548;2023-07-29T06:37:27;20.70;99.90
71084;DHT22;58741;52.672;13.548;2023-07-29T06:39:53;20.70;99.90
71084;DHT22;58741;52.672;13.548;2023-07-29T06:42:19;20.80;99.90
71084;DHT22;58741;52.672;13.548;2023-07-29T06:44:44;20.80;99.90
71084;DHT22;58741;52.672;13.548;2023-07-29T06:47:11;20.90;99.90
71084;DHT22;58741;52.672;13.548;2023-07-29T06:49:37;21.10;99.90
71084;DHT22;58741;52.672;13.548;2023-07-29T06:52:02;21.20;99.90
71084;DHT22;58741;52.672;13.548;2023-07-29T06:54:28;21.40;99.90
71084;DHT22;58741;52.672;13.548;2023-07-29T06:56:54;21.40;99.90
71084;DHT22;58741;52.672;13.548;2023-07-29T06:59:19;21.50;99.90
71084;DHT22;58741;52.672;13.548;2023-07-29T07:01:45;21.60;99.90
71084;DHT22;58741;52.672;13.548;2023-07-29T07:04:11;21.60;99.90
71084;DHT22;58741;52.672;13.548;2023-07-29T07:06:36;21.60;99.90
71084;DHT22;58741;52.672;13.548;2023-07-29T07:09:02;21.70;99.90
71084;DHT22;58741;52.672;13.548;2023-07-29T07:11:28;21.90;99.90
71084;DHT22;58741;52.672;13.548;2023-07-29T07:13:53;22.10;99.90
71084;DHT22;58741;52.672;13.548;2023-07-29T07:16:19;22.30;99.90
71084;DHT22;58741;52.672;13.548;2023-07-29T07:18:44;22.50;99.90
71084;DHT22;58741;52.672;13.548;2023-07-29T07:21:10;22.60;99.90
71084;DHT22;58741;52.672;13.548;2023-07-29T07:23:36;22.70;99.90
71084;DHT22;58741;52.672;13.548;2023-07-29T07:26:01;22.80;99.90
71084;DHT22;58741;52.672;13.548;2023-07-29T07:28:28;22.90;99.90
71084;DHT22;58741;52.672;13.548;2023-07-29T07:30:53;23.00;99.90
71084;DHT22;58741;52.672;13.548;2023-07-29T07:33:21;23.10;99.90
71084;DHT22;58741;52.672;13.548;2023-07-29T07:35:47;23.30;99.90
71084;DHT22;58741;52.672;13.548;2023-07-29T07:38:12;23.30;99.90
71084;DHT22;58741;52.672;13.548;2023-07-29T07:40:38;23.30;99.90
71084;DHT22;58741;52.672;13.548;2023-07-29T07:43:03;23.30;99.90
71084;DHT22;58741;52.672;13.548;2023-07-29T07:45:29;23.30;99.90
71084;DHT22;58741;52.672;13.548;2023-07-29T07:47:55;23.30;99.90
71084;DHT22;58741;52.672;13.548;2023-07-29T07:50:21;23.30;99.90
71084;DHT22;58741;52.672;13.548;2023-07-29T07:52:47;23.30;99.90
71084;DHT22;58741;52.672;13.548;2023-07-29T07:55:12;23.30;99.90
71084;DHT22;58741;52.672;13.548;2023-07-29T07:57:38;23.30;99.90
71084;DHT22;58741;52.672;13.548;2023-07-29T08:00:04;23.40;99.90
71084;DHT22;58741;52.672;13.548;2023-07-29T08:02:38;23.40;99.90
71084;DHT22;58741;52.672;13.548;2023-07-29T08:05:04;23.40;99.90
71084;DHT22;58741;52.672;13.548;2023-07-29T08:07:29;23.50;99.90
71084;DHT22;58741;52.672;13.548;2023-07-29T08:09:55;23.50;99.90
71084;DHT22;58741;52.672;13.548;2023-07-29T08:12:21;23.60;99.90
71084;DHT22;58741;52.672;13.548;2023-07-29T08:14:46;23.60;99.90
71084;DHT22;58741;52.672;13.548;2023-07-29T08:17:12;23.70;99.90
71084;DHT22;58741;52.672;13.548;2023-07-29T08:19:37;23.90;99.90
71084;DHT22;58741;52.672;13.548;2023-07-29T08:22:03;24.00;99.90
71084;DHT22;58741;52.672;13.548;2023-07-29T08:24:29;24.20;99.90
71084;DHT22;58741;52.672;13.548;2023-07-29T08:26:55;24.30;99.90
71084;DHT22;58741;52.672;13.548;2023-07-29T08:29:20;24.40;99.90
71084;DHT22;58741;52.672;13.548;2023-07-29T08:31:46;24.40;99.90
71084;DHT22;58741;52.672;13.548;2023-07-29T08:34:11;24.30;99.90
71084;DHT22;58741;52.672;13.548;2023-07-29T08:36:37;24.30;99.90
71084;DHT22;58741;52.672;13.548;2023-07-29T08:39:02;24.40;99.90
71084;DHT22;58741;52.672;13.548;2023-07-29T08:44:22;24.50;99.90
71084;DHT22;58741;52.672;13.548;2023-07-29T08:46:49;24.60;99.90
71084;DHT22;58741;52.672;13.548;2023-07-29T08:49:16;24.60;99.90
71084;DHT22;58741;52.672;13.548;2023-07-29T08:51:46;24.70;99.90
71084;DHT22;58741;52.672;13.548;2023-07-29T08:54:13;24.70;99.90
71084;DHT22;58741;52.672;13.548;2023-07-29T08:56:41;24.70;99.90
71084;DHT22;58741;52.672;13.548;2023-07-29T08:59:07;24.80;99.90
71084;DHT22;58741;52.672;13.548;2023-07-29T09:01:33;24.80;99.90
71084;DHT22;58741;52.672;13.548;2023-07-29T09:03:59;25.00;99.90
71084;DHT22;58741;52.672;13.548;2023-07-29T09:06:25;25.00;99.90
71084;DHT22;58741;52.672;13.548;2023-07-29T09:08:53;25.10;99.90
71084;DHT22;58741;52.672;13.548;2023-07-29T09:11:20;25.20;99.90
71084;DHT22;58741;52.672;13.548;2023-07-29T09:13:46;25.30;99.90
71084;DHT22;58741;52.672;13.548;2023-07-29T09:16:12;25.30;99.90
71084;DHT22;58741;52.672;13.548;2023-07-29T09:18:38;25.30;99.90
71084;DHT22;58741;52.672;13.548;2023-07-29T09:21:04;25.30;99.90
71084;DHT22;58741;52.672;13.548;2023-07-29T09:23:39;25.30;99.90
71084;DHT22;58741;52.672;13.548;2023-07-29T09:26:06;25.30;99.90
71084;DHT22;58741;52.672;13.548;2023-07-29T09:28:37;25.30;99.90
71084;DHT22;58741;52.672;13.548;2023-07-29T09:31:03;25.20;99.90
71084;DHT22;58741;52.672;13.548;2023-07-29T09:33:32;25.20;99.90
71084;DHT22;58741;52.672;13.548;2023-07-29T09:36:00;25.20;99.90
71084;DHT22;58741;52.672;13.548;2023-07-29T09:38:29;25.30;99.90
71084;DHT22;58741;52.672;13.548;2023-07-29T09:41:15;25.40;99.90
71084;DHT22;58741;52.672;13.548;2023-07-29T09:43:47;25.60;99.90
71084;DHT22;58741;52.672;13.548;2023-07-29T09:46:12;25.70;99.90
71084;DHT22;58741;52.672;13.548;2023-07-29T09:48:38;25.80;99.90
71084;DHT22;58741;52.672;13.548;2023-07-29T09:51:11;25.80;99.90
71084;DHT22;58741;52.672;13.548;2023-07-29T09:53:42;25.90;99.90
71084;DHT22;58741;52.672;13.548;2023-07-29T09:56:08;26.00;99.90
71084;DHT22;58741;52.672;13.548;2023-07-29T09:58:34;26.00;99.60
71084;DHT22;58741;52.672;13.548;2023-07-29T10:01:01;26.00;99.50
71084;DHT22;58741;52.672;13.548;2023-07-29T10:03:27;26.00;99.80
71084;DHT22;58741;52.672;13.548;2023-07-29T10:05:54;26.00;99.90
71084;DHT22;58741;52.672;13.548;2023-07-29T10:08:22;26.00;99.70
71084;DHT22;58741;52.672;13.548;2023-07-29T10:10:50;26.00;99.60
71084;DHT22;58741;52.672;13.548;2023-07-29T10:13:16;26.00;99.70
71084;DHT22;58741;52.672;13.548;2023-07-29T10:15:44;26.00;99.60
71084;DHT22;58741;52.672;13.548;2023-07-29T10:18:10;26.00;99.60
71084;DHT22;58741;52.672;13.548;2023-07-29T10:20:37;26.00;99.60
71084;DHT22;58741;52.672;13.548;2023-07-29T10:23:07;26.00;98.50
71084;DHT22;58741;52.672;13.548;2023-07-29T10:25:45;26.00;99.60
71084;DHT22;58741;52.672;13.548;2023-07-29T10:28:12;26.10;98.90
71084;DHT22;58741;52.672;13.548;2023-07-29T10:30:38;26.00;98.20
71084;DHT22;58741;52.672;13.548;2023-07-29T10:33:05;26.00;96.00
71084;DHT22;58741;52.672;13.548;2023-07-29T10:35:35;26.00;98.70
71084;DHT22;58741;52.672;13.548;2023-07-29T10:38:02;26.10;98.90
71084;DHT22;58741;52.672;13.548;2023-07-29T10:40:47;26.10;97.40
71084;DHT22;58741;52.672;13.548;2023-07-29T10:43:24;26.10;98.50
71084;DHT22;58741;52.672;13.548;2023-07-29T10:45:49;26.10;98.20
71084;DHT22;58741;52.672;13.548;2023-07-29T10:51:28;25.90;98.50
71084;DHT22;58741;52.672;13.548;2023-07-29T10:56:35;25.70;99.40
71084;DHT22;58741;52.672;13.548;2023-07-29T11:01:57;25.60;99.70
71084;DHT22;58741;52.672;13.548;2023-07-29T11:04:30;25.50;99.80
71084;DHT22;58741;52.672;13.548;2023-07-29T11:09:51;25.40;99.80
71084;DHT22;58741;52.672;13.548;2023-07-29T11:12:37;25.40;99.60
71084;DHT22;58741;52.672;13.548;2023-07-29T11:17:37;25.20;99.50
71084;DHT22;58741;52.672;13.548;2023-07-29T11:20:04;25.20;99.80
71084;DHT22;58741;52.672;13.548;2023-07-29T11:22:30;25.10;99.50
71084;DHT22;58741;52.672;13.548;2023-07-29T11:24:56;25.00;99.70
71084;DHT22;58741;52.672;13.548;2023-07-29T11:27:22;24.70;98.80
71084;DHT22;58741;52.672;13.548;2023-07-29T11:29:48;24.20;99.90
71084;DHT22;58741;52.672;13.548;2023-07-29T11:32:15;23.40;99.80
71084;DHT22;58741;52.672;13.548;2023-07-29T11:34:41;22.40;99.90
71084;DHT22;58741;52.672;13.548;2023-07-29T11:37:11;21.80;99.90
71084;DHT22;58741;52.672;13.548;2023-07-29T11:39:41;21.30;99.90
71084;DHT22;58741;52.672;13.548;2023-07-29T11:42:10;20.70;99.90
71084;DHT22;58741;52.672;13.548;2023-07-29T11:44:36;20.40;99.90
71084;DHT22;58741;52.672;13.548;2023-07-29T11:47:02;20.20;99.90
71084;DHT22;58741;52.672;13.548;2023-07-29T11:49:32;20.00;99.90
71084;DHT22;58741;52.672;13.548;2023-07-29T11:51:58;20.00;99.90
71084;DHT22;58741;52.672;13.548;2023-07-29T11:54:25;20.00;99.90
71084;DHT22;58741;52.672;13.548;2023-07-29T11:56:50;20.00;99.90
71084;DHT22;58741;52.672;13.548;2023-07-29T11:59:16;20.00;99.90
71084;DHT22;58741;52.672;13.548;2023-07-29T12:01:42;20.10;99.90
71084;DHT22;58741;52.672;13.548;2023-07-29T12:04:08;20.10;99.90
71084;DHT22;58741;52.672;13.548;2023-07-29T12:06:34;20.10;99.90
71084;DHT22;58741;52.672;13.548;2023-07-29T12:09:00;20.20;99.90
71084;DHT22;58741;52.672;13.548;2023-07-29T12:11:26;20.20;99.90
71084;DHT22;58741;52.672;13.548;2023-07-29T12:13:54;20.30;99.90
71084;DHT22;58741;52.672;13.548;2023-07-29T12:16:20;20.30;99.90
71084;DHT22;58741;52.672;13.548;2023-07-29T12:18:46;20.40;99.90
71084;DHT22;58741;52.672;13.548;2023-07-29T12:21:14;20.50;99.90
71084;DHT22;58741;52.672;13.548;2023-07-29T12:23:40;20.40;99.90
71084;DHT22;58741;52.672;13.548;2023-07-29T12:26:05;20.50;99.90
71084;DHT22;58741;52.672;13.548;2023-07-29T12:28:31;20.50;99.90
71084;DHT22;58741;52.672;13.548;2023-07-29T12:30:58;20.50;99.90
71084;DHT22;58741;52.672;13.548;2023-07-29T12:33:32;20.50;99.90
71084;DHT22;58741;52.672;13.548;2023-07-29T12:35:58;20.60;99.90
71084;DHT22;58741;52.672;13.548;2023-07-29T12:38:31;20.60;99.90
71084;DHT22;58741;52.672;13.548;2023-07-29T12:40:56;20.70;99.90
71084;DHT22;58741;52.672;13.548;2023-07-29T12:43:22;20.70;99.90
71084;DHT22;58741;52.672;13.548;2023-07-29T12:45:51;20.80;99.90
71084;DHT22;58741;52.672;13.548;2023-07-29T12:48:17;20.80;99.90
71084;DHT22;58741;52.672;13.548;2023-07-29T12:50:43;20.80;99.90
71084;DHT22;58741;52.672;13.548;2023-07-29T12:53:09;20.80;99.90
71084;DHT22;58741;52.672;13.548;2023-07-29T12:55:37;20.80;99.90
71084;DHT22;58741;52.672;13.548;2023-07-29T12:58:03;20.90;99.90
71084;DHT22;58741;52.672;13.548;2023-07-29T13:00:29;20.90;99.90
71084;DHT22;58741;52.672;13.548;2023-07-29T13:02:55;21.10;99.90
71084;DHT22;58741;52.672;13.548;2023-07-29T13:05:21;21.10;99.90
71084;DHT22;58741;52.672;13.548;2023-07-29T13:07:46;21.20;99.90
71084;DHT22;58741;52.672;13.548;2023-07-29T13:10:13;21.40;99.90
71084;DHT22;58741;52.672;13.548;2023-07-29T13:12:39;21.60;99.90
71084;DHT22;58741;52.672;13.548;2023-07-29T13:15:05;21.70;99.90
71084;DHT22;58741;52.672;13.548;2023-07-29T13:17:32;21.90;99.90
71084;DHT22;58741;52.672;13.548;2023-07-29T13:19:58;22.00;99.90
71084;DHT22;58741;52.672;13.548;2023-07-29T13:22:24;22.20;99.90
71084;DHT22;58741;52.672;13.548;2023-07-29T13:24:49;22.30;99.90
71084;DHT22;58741;52.672;13.548;2023-07-29T13:27:15;22.50;99.90
71084;DHT22;58741;52.672;13.548;2023-07-29T13:29:40;22.60;99.90
71084;DHT22;58741;52.672;13.548;2023-07-29T13:32:07;22.80;99.90
71084;DHT22;58741;52.672;13.548;2023-07-29T13:34:33;22.90;99.90
71084;DHT22;58741;52.672;13.548;2023-07-29T13:37:00;23.00;99.90
71084;DHT22;58741;52.672;13.548;2023-07-29T13:39:25;23.00;99.90
71084;DHT22;58741;52.672;13.548;2023-07-29T13:41:51;22.90;99.90
71084;DHT22;58741;52.672;13.548;2023-07-29T13:44:16;22.90;99.90
71084;DHT22;58741;52.672;13.548;2023-07-29T13:46:42;22.90;99.90
71084;DHT22;58741;52.672;13.548;2023-07-29T13:49:08;22.80;99.90
71084;DHT22;58741;52.672;13.548;2023-07-29T13:51:33;22.80;99.90
71084;DHT22;58741;52.672;13.548;2023-07-29T13:53:59;22.80;99.90
71084;DHT22;58741;52.672;13.548;2023-07-29T13:56:24;23.00;99.90
71084;DHT22;58741;52.672;13.548;2023-07-29T13:58:50;23.20;99.90
71084;DHT22;58741;52.672;13.548;2023-07-29T14:01:16;23.30;99.90
71084;DHT22;58741;52.672;13.548;2023-07-29T14:03:41;23.40;99.90
71084;DHT22;58741;52.672;13.548;2023-07-29T14:06:07;23.50;99.90
71084;DHT22;58741;52.672;13.548;2023-07-29T14:08:32;23.60;99.90
71084;DHT22;58741;52.672;13.548;2023-07-29T14:10:58;23.70;99.90
71084;DHT22;58741;52.672;13.548;2023-07-29T14:13:23;23.70;99.90
71084;DHT22;58741;52.672;13.548;2023-07-29T14:15:49;23.80;99.90
71084;DHT22;58741;52.672;13.548;2023-07-29T14:18:15;23.90;99.90
71084;DHT22;58741;52.672;13.548;2023-07-29T14:20:41;23.90;99.90
71084;DHT22;58741;52.672;13.548;2023-07-29T14:23:06;23.90;99.90
71084;DHT22;58741;52.672;13.548;2023-07-29T14:25:32;24.00;99.90
71084;DHT22;58741;52.672;13.548;2023-07-29T14:27:57;24.10;99.90
71084;DHT22;58741;52.672;13.548;2023-07-29T14:30:23;24.20;99.90
71084;DHT22;58741;52.672;13.548;2023-07-29T14:32:49;24.40;99.90
71084;DHT22;58741;52.672;13.548;2023-07-29T14:35:15;24.40;99.90
71084;DHT22;58741;52.672;13.548;2023-07-29T14:40:15;24.40;99.90
71084;DHT22;58741;52.672;13.548;2023-07-29T14:42:40;24.30;99.90
71084;DHT22;58741;52.672;13.548;2023-07-29T14:45:06;24.40;99.90
71084;DHT22;58741;52.672;13.548;2023-07-29T14:47:32;24.30;99.90
71084;DHT22;58741;52.672;13.548;2023-07-29T14:50:00;24.20;99.90
71084;DHT22;58741;52.672;13.548;2023-07-29T14:52:26;24.20;99.90
71084;DHT22;58741;52.672;13.548;2023-07-29T14:54:51;24.10;99.90
71084;DHT22;58741;52.672;13.548;2023-07-29T14:57:17;24.00;99.90
71084;DHT22;58741;52.672;13.548;2023-07-29T14:59:42;23.90;99.90
71084;DHT22;58741;52.672;13.548;2023-07-29T15:02:08;23.80;99.90
71084;DHT22;58741;52.672;13.548;2023-07-29T15:04:34;23.80;99.90
71084;DHT22;58741;52.672;13.548;2023-07-29T15:06:59;23.70;99.90
71084;DHT22;58741;52.672;13.548;2023-07-29T15:09:25;23.80;99.90
71084;DHT22;58741;52.672;13.548;2023-07-29T15:11:51;23.90;99.90
71084;DHT22;58741;52.672;13.548;2023-07-29T15:14:16;24.00;99.90
71084;DHT22;58741;52.672;13.548;2023-07-29T15:16:42;24.10;99.90
71084;DHT22;58741;52.672;13.548;2023-07-29T15:19:07;24.20;99.90
71084;DHT22;58741;52.672;13.548;2023-07-29T15:21:33;24.30;99.90
71084;DHT22;58741;52.672;13.548;2023-07-29T15:23:59;24.30;99.90
71084;DHT22;58741;52.672;13.548;2023-07-29T15:26:24;24.30;99.90
71084;DHT22;58741;52.672;13.548;2023-07-29T15:28:50;24.20;99.90
71084;DHT22;58741;52.672;13.548;2023-07-29T15:31:15;24.20;99.90
71084;DHT22;58741;52.672;13.548;2023-07-29T15:33:41;24.10;99.90
71084;DHT22;58741;52.672;13.548;2023-07-29T15:36:07;23.90;99.90
71084;DHT22;58741;52.672;13.548;2023-07-29T15:38:32;23.80;99.90